GCC Virtual Airport Information Service

Bahrain International Airport

ICAO: OBBI Country: BH
Latitude: 26.2708 Longitude: 50.6336
Latest Arrival : GFA505 (OMDB-OBBI) Latest Departure : UAE840 (OBBI-OMDB)


WX CaptureLIVE
Data provided by noaa.gov | Fetched at 07:09:20

METAR : OBBI 270700Z 30010KT 3000 HZ SKC 19/15 Q1021 NOSIG

TAF : OBBI 270500Z 2706/2812 30010KT 7000 NSC TEMPO 2706/2708 3000 HZ BECMG 2721/2800 VRB03KT 4000 HZ PROB30 TEMPO 2801/2806 1500 BR BKN005 BECMG 2809/2812 07010KT CAVOK


Runway Data for OBBI
Data provided by openaviationdata.com

Runway ID Mag Var Hdg Length Elevation Surface ILS Freq ILS Id ILS Slope
12L 2 120° 12976 ft 6 ft Asphalt 111.5 IBIB 3
12R 2 120° 8301 ft 6 ft Asphalt -- -- --
30L 2 300° 8301 ft 6 ft Asphalt -- -- --
30R 2 300° 12976 ft 6 ft Asphalt 110.3 IBIA 3

Bahrain International Airport, BH
Use only for reference purposes



Not for navigational purposes.